Terminal Aerodrome Forecast
Issued by NWS

Home | Current Version | Previous Version | Text Only | Print | Product List | Glossary Off
Versions: 1 2 3 4 5 6 7 8 9 10 11 12 13 14

000
FTUS43 KICT 211722
TAFHUT
TAF
KHUT 211722Z 2118/2218 04018G25KT P6SM SCT040 BKN200
     FM220000 06013KT P6SM SCT040
     FM221200 09012KT P6SM OVC030=

USA.gov is the U.S. government's official web portal to all federal, state and local government web resources and services.